createdAt,value
2017-09-02T00:00:08.212Z,0
2017-09-02T00:01:09.611Z,0
2017-09-02T00:02:11.050Z,0
2017-09-02T00:03:12.451Z,0
2017-09-02T00:04:14.014Z,0
2017-09-02T00:05:15.409Z,0
2017-09-02T00:06:16.893Z,0
2017-09-02T00:07:18.290Z,0
2017-09-02T00:08:19.775Z,0
2017-09-02T00:09:21.213Z,0
2017-09-02T00:10:22.859Z,0
2017-09-02T00:11:24.257Z,0
2017-09-02T00:12:25.744Z,0
2017-09-02T00:13:27.145Z,0
2017-09-02T00:14:28.539Z,0
2017-09-02T00:15:30.062Z,0
2017-09-02T00:16:31.461Z,0
2017-09-02T00:17:32.867Z,0
2017-09-02T00:18:34.359Z,0
2017-09-02T00:19:35.759Z,0
2017-09-02T00:20:37.158Z,0
2017-09-02T00:21:38.732Z,0
2017-09-02T00:22:40.134Z,0
2017-09-02T00:23:41.552Z,0
2017-09-02T00:24:43.032Z,0
2017-09-02T00:25:44.430Z,0
2017-09-02T00:26:45.843Z,0
2017-09-02T00:27:47.379Z,0
2017-09-02T00:28:48.783Z,0
2017-09-02T00:29:50.184Z,0
2017-09-02T00:30:51.669Z,0
2017-09-02T00:31:53.067Z,0
2017-09-02T00:32:54.461Z,0
2017-09-02T00:33:55.895Z,0
2017-09-02T00:34:57.294Z,0
2017-09-02T00:35:58.888Z,0
2017-09-02T00:37:00.288Z,0
2017-09-02T00:38:01.747Z,0
2017-09-02T00:39:03.148Z,0
2017-09-02T00:40:04.579Z,0
2017-09-02T00:41:06.069Z,0
2017-09-02T00:42:07.467Z,0
2017-09-02T00:43:08.870Z,0
2017-09-02T00:44:10.410Z,0
2017-09-02T00:45:11.812Z,0
2017-09-02T00:46:13.281Z,0
2017-09-02T00:47:14.695Z,0
2017-09-02T00:48:16.094Z,0
2017-09-02T00:49:17.610Z,0
2017-09-02T00:50:19.014Z,0
2017-09-02T00:51:20.413Z,0
2017-09-02T00:52:21.911Z,0
2017-09-02T00:53:23.318Z,0
2017-09-02T00:54:24.713Z,0
2017-09-02T00:55:26.154Z,0
2017-09-02T00:56:27.563Z,0
2017-09-02T00:57:29.121Z,0
2017-09-02T00:58:30.518Z,0
2017-09-02T00:59:31.918Z,0
2017-09-02T01:00:33.439Z,0
2017-09-02T01:01:34.843Z,0
2017-09-02T01:02:36.242Z,0
2017-09-02T01:03:37.758Z,0
2017-09-02T01:04:39.158Z,0
2017-09-02T01:05:40.643Z,0
2017-09-02T01:06:42.053Z,0
2017-09-02T01:07:43.520Z,0
2017-09-02T01:08:44.918Z,0
2017-09-02T01:09:46.405Z,0
2017-09-02T01:10:47.802Z,0
2017-09-02T01:11:49.284Z,0
2017-09-02T01:12:50.684Z,0
2017-09-02T01:13:52.113Z,0
2017-09-02T01:14:53.603Z,0
2017-09-02T01:15:55.015Z,0
2017-09-02T01:16:56.816Z,0
2017-09-02T01:17:58.363Z,0
2017-09-02T01:18:59.760Z,0
2017-09-02T01:20:01.160Z,0
2017-09-02T01:21:02.650Z,0
2017-09-02T01:22:04.050Z,0
2017-09-02T01:23:05.633Z,0
2017-09-02T01:24:07.039Z,0
2017-09-02T01:25:08.622Z,0
2017-09-02T01:26:10.022Z,0
2017-09-02T01:27:11.516Z,0
2017-09-02T01:28:12.920Z,0
2017-09-02T01:29:14.315Z,0
2017-09-02T01:30:15.823Z,0
2017-09-02T01:31:17.220Z,0
2017-09-02T01:32:18.620Z,0
2017-09-02T01:33:20.144Z,0
2017-09-02T01:34:21.543Z,0
2017-09-02T01:35:22.944Z,0
2017-09-02T01:36:24.463Z,0
2017-09-02T01:37:25.888Z,0
2017-09-02T01:38:27.287Z,0
2017-09-02T01:39:28.783Z,0
2017-09-02T01:40:30.184Z,0
2017-09-02T01:41:31.587Z,0
2017-09-02T01:42:33.105Z,0
2017-09-02T01:43:34.513Z,0
2017-09-02T01:44:35.912Z,0
2017-09-02T01:45:37.425Z,0
2017-09-02T01:46:38.828Z,0
2017-09-02T01:47:40.245Z,0
2017-09-02T01:48:41.764Z,0
2017-09-02T01:49:43.175Z,0
2017-09-02T01:50:44.575Z,0
2017-09-02T01:51:46.067Z,0
2017-09-02T01:52:47.468Z,0
2017-09-02T01:53:48.870Z,0
2017-09-02T01:54:50.389Z,0
2017-09-02T01:55:51.802Z,0
2017-09-02T01:56:53.208Z,0
2017-09-02T01:57:54.710Z,0
2017-09-02T01:58:56.109Z,0
2017-09-02T01:59:57.513Z,0
2017-09-02T02:00:59.051Z,0
2017-09-02T02:02:00.460Z,0
2017-09-02T02:03:01.865Z,0
2017-09-02T02:04:03.359Z,0
2017-09-02T02:05:04.752Z,0
2017-09-02T02:06:06.336Z,0
2017-09-02T02:07:07.738Z,0
2017-09-02T02:08:09.318Z,0
2017-09-02T02:09:10.723Z,0
2017-09-02T02:10:12.122Z,0
2017-09-02T02:11:13.641Z,0
2017-09-02T02:12:15.039Z,0
2017-09-02T02:13:16.435Z,0
2017-09-02T02:14:17.971Z,0
2017-09-02T02:15:19.372Z,0
2017-09-02T02:16:20.776Z,0
2017-09-02T02:17:22.386Z,0
2017-09-02T02:18:23.789Z,0
2017-09-02T02:19:25.182Z,0
2017-09-02T02:20:26.709Z,0
2017-09-02T02:21:28.107Z,0
2017-09-02T02:22:29.797Z,0
2017-09-02T02:23:31.190Z,0
2017-09-02T02:24:32.877Z,0
2017-09-02T02:25:34.277Z,0
2017-09-02T02:26:35.684Z,0
2017-09-02T02:27:37.404Z,0
2017-09-02T02:28:38.800Z,0
2017-09-02T02:29:40.197Z,0
2017-09-02T02:30:41.725Z,0
2017-09-02T02:31:43.124Z,0
2017-09-02T02:32:44.549Z,0
2017-09-02T02:33:46.271Z,0
2017-09-02T02:34:47.678Z,0
2017-09-02T02:35:49.077Z,0
2017-09-02T02:36:50.808Z,0
2017-09-02T02:37:52.210Z,0
2017-09-02T02:38:53.864Z,0
2017-09-02T02:39:55.270Z,0
2017-09-02T02:40:56.947Z,0
2017-09-02T02:41:58.345Z,0
2017-09-02T02:43:00.032Z,0
2017-09-02T02:44:01.435Z,0
2017-09-02T02:45:03.127Z,0
2017-09-02T02:46:04.529Z,0
2017-09-02T02:47:06.203Z,0
2017-09-02T02:48:07.607Z,0
2017-09-02T02:49:09.289Z,0
2017-09-02T02:50:10.689Z,0
2017-09-02T02:51:12.088Z,0
2017-09-02T02:52:13.611Z,0
2017-09-02T02:53:15.010Z,0
2017-09-02T02:54:16.408Z,0
2017-09-02T02:55:17.931Z,0
2017-09-02T02:56:19.331Z,0
2017-09-02T02:57:20.732Z,0
2017-09-02T02:58:22.250Z,0
2017-09-02T02:59:23.662Z,0
2017-09-02T03:00:25.072Z,0
2017-09-02T03:01:26.783Z,0
2017-09-02T03:02:28.181Z,0
2017-09-02T03:03:29.877Z,0
2017-09-02T03:04:31.268Z,0
2017-09-02T03:05:32.953Z,0
2017-09-02T03:06:34.364Z,0
2017-09-02T03:07:36.041Z,0
2017-09-02T03:08:37.449Z,0
2017-09-02T03:09:39.122Z,0
2017-09-02T03:10:40.516Z,0
2017-09-02T03:11:42.226Z,0
2017-09-02T03:12:43.653Z,0
2017-09-02T03:13:45.318Z,0
2017-09-02T03:14:46.729Z,0
2017-09-02T03:15:48.378Z,0
2017-09-02T03:16:49.776Z,0
2017-09-02T03:17:51.464Z,0
2017-09-02T03:18:52.883Z,0
2017-09-02T03:19:54.548Z,0
2017-09-02T03:20:55.952Z,0
2017-09-02T03:21:57.366Z,0
2017-09-02T03:22:59.083Z,0
2017-09-02T03:24:00.487Z,0
2017-09-02T03:25:01.891Z,0
2017-09-02T03:26:03.291Z,0
2017-09-02T03:27:04.849Z,0
2017-09-02T03:28:06.242Z,0
2017-09-02T03:29:07.920Z,0
2017-09-02T03:30:09.323Z,0
2017-09-02T03:31:10.727Z,0
2017-09-02T03:32:12.258Z,0
2017-09-02T03:33:13.683Z,0
2017-09-02T03:34:15.084Z,0
2017-09-02T03:35:16.769Z,0
2017-09-02T03:36:18.169Z,0
2017-09-02T03:37:19.857Z,0
2017-09-02T03:38:21.275Z,0
2017-09-02T03:39:22.942Z,0
2017-09-02T03:40:24.337Z,0
2017-09-02T03:41:25.761Z,0
2017-09-02T03:42:27.467Z,0
2017-09-02T03:43:28.863Z,0
2017-09-02T03:44:30.267Z,0
2017-09-02T03:45:31.794Z,0
2017-09-02T03:46:33.194Z,0
2017-09-02T03:47:34.591Z,0
2017-09-02T03:48:36.021Z,0
2017-09-02T03:49:37.420Z,0
2017-09-02T03:50:38.820Z,0
2017-09-02T03:51:40.337Z,0
2017-09-02T03:52:41.746Z,0
2017-09-02T03:53:43.307Z,0
2017-09-02T03:54:44.725Z,0
2017-09-02T03:55:46.206Z,0
2017-09-02T03:56:47.832Z,0
2017-09-02T03:57:49.234Z,0
2017-09-02T03:58:50.635Z,0
2017-09-02T03:59:52.162Z,0
2017-09-02T04:00:53.619Z,0
2017-09-02T04:01:55.031Z,0
2017-09-02T04:02:56.679Z,0
2017-09-02T04:03:58.078Z,0
2017-09-02T04:04:59.479Z,0
2017-09-02T04:06:01.000Z,0
2017-09-02T04:07:02.398Z,0
2017-09-02T04:08:03.883Z,0
2017-09-02T04:09:05.283Z,0
2017-09-02T04:10:06.974Z,0
2017-09-02T04:11:08.382Z,0
2017-09-02T04:12:09.773Z,0
2017-09-02T04:13:11.288Z,0
2017-09-02T04:14:12.686Z,0
2017-09-02T04:15:14.085Z,0
2017-09-02T04:16:15.608Z,0
2017-09-02T04:17:17.007Z,0
2017-09-02T04:18:18.693Z,0
2017-09-02T04:19:20.091Z,0
2017-09-02T04:20:21.780Z,0
2017-09-02T04:21:23.180Z,0
2017-09-02T04:22:24.578Z,0
2017-09-02T04:23:26.101Z,0
2017-09-02T04:24:27.507Z,0
2017-09-02T04:25:28.899Z,4
2017-09-02T04:26:30.421Z,0
2017-09-02T04:27:31.822Z,4
2017-09-02T04:28:33.293Z,0
2017-09-02T04:29:34.950Z,4
2017-09-02T04:30:36.352Z,4
2017-09-02T04:31:37.774Z,4
2017-09-02T04:32:39.311Z,4
2017-09-02T04:33:40.693Z,4
2017-09-02T04:34:42.096Z,4
2017-09-02T04:35:43.588Z,8
2017-09-02T04:36:44.999Z,8
2017-09-02T04:37:46.675Z,8
2017-09-02T04:38:48.093Z,8
2017-09-02T04:39:49.679Z,4
2017-09-02T04:40:51.087Z,8
2017-09-02T04:41:52.490Z,8
2017-09-02T04:42:54.105Z,4
2017-09-02T04:43:55.502Z,8
2017-09-02T04:44:56.936Z,8
2017-09-02T04:45:58.623Z,8
2017-09-02T04:47:00.031Z,8
2017-09-02T04:48:01.432Z,12
2017-09-02T04:49:02.933Z,16
2017-09-02T04:50:04.341Z,12
2017-09-02T04:51:05.745Z,12
2017-09-02T04:52:07.257Z,16
2017-09-02T04:53:08.658Z,16
2017-09-02T04:54:10.057Z,12
2017-09-02T04:55:11.496Z,12
2017-09-02T04:56:12.914Z,16
2017-09-02T04:57:14.314Z,16
2017-09-02T04:58:15.892Z,16
2017-09-02T04:59:17.292Z,20
2017-09-02T05:00:18.978Z,24
2017-09-02T05:01:20.381Z,24
2017-09-02T05:02:21.782Z,24
2017-09-02T05:03:23.311Z,20
2017-09-02T05:04:24.710Z,20
2017-09-02T05:05:26.115Z,16
2017-09-02T05:06:27.634Z,16
2017-09-02T05:07:29.049Z,12
2017-09-02T05:08:30.438Z,12
2017-09-02T05:09:31.941Z,12
2017-09-02T05:10:33.343Z,12
2017-09-02T05:11:34.741Z,12
2017-09-02T05:12:36.270Z,16
2017-09-02T05:13:37.673Z,20
2017-09-02T05:14:39.073Z,24
2017-09-02T05:15:40.583Z,24
2017-09-02T05:16:41.986Z,24
2017-09-02T05:17:43.389Z,28
2017-09-02T05:18:44.907Z,32
2017-09-02T05:19:46.311Z,32
2017-09-02T05:20:47.705Z,36
2017-09-02T05:21:49.227Z,40
2017-09-02T05:22:50.625Z,44
2017-09-02T05:23:52.054Z,44
2017-09-02T05:24:53.546Z,48
2017-09-02T05:25:54.947Z,52
2017-09-02T05:26:56.347Z,48
2017-09-02T05:27:57.868Z,44
2017-09-02T05:28:59.266Z,44
2017-09-02T05:30:00.747Z,52
2017-09-02T05:31:02.434Z,56
2017-09-02T05:32:03.946Z,60
2017-09-02T05:33:06.140Z,64
2017-09-02T05:34:07.569Z,72
2017-09-02T05:35:08.967Z,76
2017-09-02T05:36:10.629Z,76
2017-09-02T05:37:12.036Z,84
2017-09-02T05:38:13.438Z,92
2017-09-02T05:39:14.945Z,96
2017-09-02T05:40:16.343Z,104
2017-09-02T05:41:17.744Z,112
2017-09-02T05:42:19.144Z,120
2017-09-02T05:43:20.544Z,128
2017-09-02T05:44:22.143Z,136
2017-09-02T05:45:23.547Z,140
2017-09-02T05:46:24.955Z,140
2017-09-02T05:47:26.465Z,140
2017-09-02T05:48:27.873Z,140
2017-09-02T05:49:29.550Z,144
2017-09-02T05:50:30.953Z,148
2017-09-02T05:51:32.642Z,152
2017-09-02T05:52:34.049Z,156
2017-09-02T05:53:35.450Z,160
2017-09-02T05:54:36.959Z,164
2017-09-02T05:55:38.360Z,172
2017-09-02T05:56:39.761Z,180
2017-09-02T05:57:41.304Z,180
2017-09-02T05:58:42.693Z,180
2017-09-02T05:59:44.365Z,184
2017-09-02T06:00:45.770Z,188
2017-09-02T06:01:47.450Z,196
2017-09-02T06:02:48.855Z,208
2017-09-02T06:03:50.255Z,224
2017-09-02T06:04:51.770Z,236
2017-09-02T06:05:53.173Z,248
2017-09-02T06:06:54.578Z,256
2017-09-02T06:07:56.095Z,260
2017-09-02T06:08:57.497Z,264
2017-09-02T06:09:58.896Z,268
2017-09-02T06:11:00.412Z,272
2017-09-02T06:12:01.818Z,272
2017-09-02T06:13:03.236Z,276
2017-09-02T06:14:04.742Z,272
2017-09-02T06:15:06.141Z,284
2017-09-02T06:16:07.820Z,300
2017-09-02T06:17:09.226Z,316
2017-09-02T06:18:10.904Z,320
2017-09-02T06:19:12.304Z,324
2017-09-02T06:20:13.862Z,328
2017-09-02T06:21:15.264Z,328
2017-09-02T06:22:16.870Z,332
2017-09-02T06:23:18.277Z,344
2017-09-02T06:24:19.670Z,348
2017-09-02T06:25:21.198Z,356
2017-09-02T06:26:22.604Z,368
2017-09-02T06:27:23.996Z,372
2017-09-02T06:28:25.513Z,376
2017-09-02T06:29:26.909Z,384
2017-09-02T06:30:28.321Z,408
2017-09-02T06:31:29.832Z,436
2017-09-02T06:32:31.245Z,460
2017-09-02T06:33:32.649Z,488
2017-09-02T06:34:34.158Z,508
2017-09-02T06:35:35.562Z,520
2017-09-02T06:36:36.967Z,528
2017-09-02T06:37:38.474Z,536
2017-09-02T06:38:39.879Z,536
2017-09-02T06:39:41.277Z,532
2017-09-02T06:40:42.797Z,520
2017-09-02T06:41:44.197Z,512
2017-09-02T06:42:45.601Z,524
2017-09-02T06:43:47.120Z,540
2017-09-02T06:44:48.522Z,572
2017-09-02T06:45:49.932Z,604
2017-09-02T06:46:51.762Z,632
2017-09-02T06:47:53.164Z,656
2017-09-02T06:48:54.578Z,672
2017-09-02T06:49:56.067Z,680
2017-09-02T06:50:57.471Z,684
2017-09-02T06:51:58.870Z,692
2017-09-02T06:53:00.284Z,708
2017-09-02T06:54:01.690Z,728
2017-09-02T06:55:03.182Z,760
2017-09-02T06:56:04.586Z,776
2017-09-02T06:57:06.068Z,784
2017-09-02T06:58:07.470Z,780
2017-09-02T06:59:08.872Z,772
2017-09-02T07:00:10.400Z,784
2017-09-02T07:01:11.821Z,804
2017-09-02T07:02:13.229Z,836
2017-09-02T07:03:14.705Z,860
2017-09-02T07:04:16.102Z,880
2017-09-02T07:05:17.571Z,896
2017-09-02T07:06:18.967Z,908
2017-09-02T07:07:20.450Z,932
2017-09-02T07:08:21.849Z,948
2017-09-02T07:09:23.254Z,972
2017-09-02T07:10:24.669Z,992
2017-09-02T07:11:26.073Z,1004
2017-09-02T07:12:27.472Z,1016
2017-09-02T07:13:28.888Z,1016
2017-09-02T07:14:30.294Z,1024
2017-09-02T07:15:31.711Z,1048
2017-09-02T07:16:33.211Z,1068
2017-09-02T07:17:34.628Z,1080
2017-09-02T07:18:36.059Z,1096
2017-09-02T07:19:37.878Z,1116
2017-09-02T07:20:46.592Z,1144
2017-09-02T07:21:48.097Z,1164
2017-09-02T07:22:49.502Z,1168
2017-09-02T07:23:50.910Z,1156
2017-09-02T07:24:53.247Z,1140
2017-09-02T07:25:54.651Z,1124
2017-09-02T07:26:56.059Z,1100
2017-09-02T07:27:57.553Z,1080
2017-09-02T07:28:58.969Z,1064
2017-09-02T07:30:00.409Z,1052
2017-09-02T07:31:01.929Z,1056
2017-09-02T07:32:03.342Z,1100
2017-09-02T07:33:04.742Z,1168
2017-09-02T07:34:06.196Z,1236
2017-09-02T07:35:07.601Z,1292
2017-09-02T07:36:12.382Z,1328
2017-09-02T07:37:17.890Z,1344
2017-09-02T07:38:19.464Z,1344
2017-09-02T07:39:20.880Z,1332
2017-09-02T07:40:22.484Z,1328
2017-09-02T07:41:23.924Z,1336
2017-09-02T07:42:25.738Z,1368
2017-09-02T07:43:27.145Z,1424
2017-09-02T07:44:28.984Z,1524
2017-09-02T07:45:30.400Z,1660
2017-09-02T07:46:31.818Z,1788
2017-09-02T07:47:33.220Z,1916
2017-09-02T07:48:34.623Z,1916
2017-09-02T07:49:36.037Z,1912
2017-09-02T07:50:37.444Z,1908
2017-09-02T07:51:38.862Z,1892
2017-09-02T07:52:40.260Z,1864
2017-09-02T07:53:41.670Z,1852
2017-09-02T07:54:43.073Z,1848
2017-09-02T07:55:44.478Z,1872
2017-09-02T07:56:45.892Z,1860
2017-09-02T07:57:47.298Z,1880
2017-09-02T07:58:48.701Z,1916
2017-09-02T07:59:50.122Z,1924
2017-09-02T08:00:51.542Z,1956
2017-09-02T08:01:52.968Z,1992
2017-09-02T08:02:54.370Z,2032
2017-09-02T08:03:55.775Z,2036
2017-09-02T08:04:57.175Z,2060
2017-09-02T08:05:58.588Z,2076
2017-09-02T08:06:59.990Z,2120
2017-09-02T08:08:01.401Z,2184
2017-09-02T08:09:02.806Z,2196
2017-09-02T08:10:04.226Z,2216
2017-09-02T08:11:05.625Z,2180
2017-09-02T08:12:07.032Z,2172
2017-09-02T08:13:08.444Z,2200
2017-09-02T08:14:09.846Z,2264
2017-09-02T08:15:11.254Z,2312
2017-09-02T08:16:12.670Z,2368
2017-09-02T08:17:14.071Z,2480
2017-09-02T08:18:15.471Z,2792
2017-09-02T08:19:16.885Z,3432
2017-09-02T08:20:18.285Z,4132
2017-09-02T08:21:19.716Z,4068
2017-09-02T08:22:21.123Z,3036
2017-09-02T08:23:22.527Z,2616
2017-09-02T08:24:23.937Z,2948
2017-09-02T08:25:25.352Z,3028
2017-09-02T08:26:26.761Z,3364
2017-09-02T08:27:28.175Z,2956
2017-09-02T08:28:29.582Z,2900
2017-09-02T08:29:30.982Z,2956
2017-09-02T08:30:32.393Z,2860
2017-09-02T08:31:33.805Z,2516
2017-09-02T08:32:35.200Z,2552
2017-09-02T08:33:36.609Z,2956
2017-09-02T08:34:38.011Z,5136
2017-09-02T08:35:39.414Z,6544
2017-09-02T08:36:40.828Z,2924
2017-09-02T08:37:42.232Z,2908
2017-09-02T08:38:43.641Z,2540
2017-09-02T08:39:45.052Z,3192
2017-09-02T08:40:46.456Z,2984
2017-09-02T08:41:47.863Z,2864
2017-09-02T08:42:49.266Z,2336
2017-09-02T08:43:50.671Z,2924
2017-09-02T08:44:52.091Z,2872
2017-09-02T08:45:53.494Z,2904
2017-09-02T08:46:54.897Z,3060
2017-09-02T08:47:56.299Z,3088
2017-09-02T08:48:57.728Z,3172
2017-09-02T08:49:59.157Z,3112
2017-09-02T08:51:00.568Z,3776
2017-09-02T08:52:01.974Z,6424
2017-09-02T08:53:03.388Z,6652
2017-09-02T08:54:04.792Z,4064
2017-09-02T08:55:06.289Z,6240
2017-09-02T08:56:07.705Z,5072
2017-09-02T08:57:09.125Z,4144
2017-09-02T08:58:10.530Z,7112
2017-09-02T08:59:11.940Z,8500
2017-09-02T09:00:13.345Z,5716
2017-09-02T09:01:14.750Z,5080
2017-09-02T09:02:17.560Z,7340
2017-09-02T09:03:18.978Z,6800
2017-09-02T09:04:20.390Z,4832
2017-09-02T09:05:21.801Z,6308
2017-09-02T09:06:23.209Z,12776
2017-09-02T09:07:24.622Z,18944
2017-09-02T09:08:26.051Z,14028
2017-09-02T09:09:27.445Z,14784
2017-09-02T09:10:29.232Z,11872
2017-09-02T09:11:30.645Z,7612
2017-09-02T09:12:32.073Z,16192
2017-09-02T09:13:33.475Z,18496
2017-09-02T09:14:34.887Z,11072
2017-09-02T09:15:36.302Z,12600
2017-09-02T09:16:37.714Z,15392
2017-09-02T09:17:39.565Z,9668
2017-09-02T09:18:41.070Z,9200
2017-09-02T09:19:44.115Z,20032
2017-09-02T09:20:45.522Z,17600
2017-09-02T09:21:46.954Z,7036
2017-09-02T09:22:48.371Z,5436
2017-09-02T09:23:49.782Z,5468
2017-09-02T09:24:53.028Z,9392
2017-09-02T09:25:55.313Z,9224
2017-09-02T09:26:57.340Z,3384
2017-09-02T09:27:59.333Z,2968
2017-09-02T09:29:00.736Z,5968
2017-09-02T09:30:02.152Z,7168
2017-09-02T09:31:03.565Z,8332
2017-09-02T09:32:05.022Z,9164
2017-09-02T09:33:06.463Z,12296
2017-09-02T09:34:07.871Z,8464
2017-09-02T09:35:09.283Z,21696
2017-09-02T09:36:10.692Z,17888
2017-09-02T09:37:12.108Z,11628
2017-09-02T09:38:13.507Z,2296
2017-09-02T09:39:14.946Z,5312
2017-09-02T09:40:16.370Z,5204
2017-09-02T09:41:17.776Z,3840
2017-09-02T09:42:19.190Z,5504
2017-09-02T09:43:20.599Z,8692
2017-09-02T09:44:22.029Z,10992
2017-09-02T09:45:23.443Z,5904
2017-09-02T09:46:24.868Z,4056
2017-09-02T09:47:26.285Z,3368
2017-09-02T09:48:27.713Z,7876
2017-09-02T09:49:29.135Z,8856
2017-09-02T09:50:30.539Z,6952
2017-09-02T09:51:31.958Z,5048
2017-09-02T09:52:33.366Z,4612
2017-09-02T09:53:34.777Z,4660
2017-09-02T09:54:36.186Z,2348
2017-09-02T09:55:37.593Z,1548
2017-09-02T09:56:38.998Z,1640
2017-09-02T09:57:40.426Z,1372
2017-09-02T09:58:41.829Z,1128
2017-09-02T09:59:43.239Z,1016
2017-09-02T10:00:44.641Z,980
2017-09-02T10:01:46.047Z,1132
2017-09-02T10:02:47.466Z,1056
2017-09-02T10:03:48.899Z,1096
2017-09-02T10:04:50.314Z,1072
2017-09-02T10:05:51.711Z,1064
2017-09-02T10:06:53.121Z,1012
2017-09-02T10:07:54.525Z,968
2017-09-02T10:08:55.935Z,952
2017-09-02T10:09:57.341Z,864
2017-09-02T10:10:58.749Z,900
2017-09-02T10:12:00.152Z,968
2017-09-02T10:13:01.564Z,992
2017-09-02T10:14:02.973Z,1076
2017-09-02T10:15:04.375Z,1160
2017-09-02T10:16:05.787Z,1192
2017-09-02T10:17:07.196Z,1312
2017-09-02T10:18:08.607Z,1344
2017-09-02T10:19:10.026Z,1336
2017-09-02T10:20:11.419Z,1292
2017-09-02T10:21:12.833Z,1268
2017-09-02T10:22:14.242Z,3976
2017-09-02T10:23:15.652Z,4248
2017-09-02T10:24:17.120Z,3948
2017-09-02T10:25:18.530Z,3688
2017-09-02T10:26:19.931Z,1196
2017-09-02T10:27:21.363Z,1136
2017-09-02T10:28:22.819Z,1108
2017-09-02T10:29:24.235Z,1100
2017-09-02T10:30:25.641Z,1140
2017-09-02T10:31:27.054Z,1176
2017-09-02T10:32:28.463Z,1208
2017-09-02T10:33:29.871Z,1224
2017-09-02T10:34:31.292Z,1272
2017-09-02T10:35:32.706Z,1384
2017-09-02T10:36:34.232Z,1392
2017-09-02T10:37:35.780Z,1396
2017-09-02T10:38:37.190Z,1468
2017-09-02T10:39:38.595Z,1732
2017-09-02T10:40:39.998Z,1888
2017-09-02T10:41:41.408Z,1996
2017-09-02T10:42:42.835Z,1904
2017-09-02T10:43:44.239Z,1996
2017-09-02T10:44:45.653Z,2256
2017-09-02T10:45:47.062Z,2648
2017-09-02T10:46:48.467Z,3940
2017-09-02T10:47:49.885Z,5992
2017-09-02T10:48:51.314Z,6080
2017-09-02T10:49:52.765Z,5092
2017-09-02T10:50:54.171Z,4532
2017-09-02T10:51:55.650Z,4488
2017-09-02T10:52:57.057Z,2344
2017-09-02T10:53:58.536Z,1760
2017-09-02T10:54:59.942Z,1412
2017-09-02T10:56:01.408Z,1408
2017-09-02T10:57:02.814Z,2008
2017-09-02T10:58:04.290Z,1724
2017-09-02T10:59:05.695Z,1532
2017-09-02T11:00:07.172Z,1480
2017-09-02T11:01:08.579Z,1720
2017-09-02T11:02:09.985Z,1780
2017-09-02T11:03:11.500Z,1664
2017-09-02T11:04:12.902Z,1440
2017-09-02T11:05:14.305Z,1592
2017-09-02T11:06:15.817Z,3048
2017-09-02T11:07:17.217Z,1844
2017-09-02T11:08:18.621Z,1852
2017-09-02T11:09:20.138Z,1844
2017-09-02T11:10:21.532Z,1656
2017-09-02T11:11:22.949Z,1740
2017-09-02T11:12:24.469Z,4676
2017-09-02T11:13:25.883Z,3856
2017-09-02T11:14:27.278Z,3896
2017-09-02T11:15:28.778Z,3232
2017-09-02T11:16:30.191Z,4564
2017-09-02T11:17:32.812Z,5288
2017-09-02T11:18:34.244Z,6056
2017-09-02T11:19:35.664Z,6248
2017-09-02T11:20:37.105Z,6236
2017-09-02T11:21:38.514Z,5792
2017-09-02T11:22:39.986Z,5688
2017-09-02T11:23:41.392Z,5264
2017-09-02T11:24:42.868Z,4676
2017-09-02T11:25:44.276Z,5860
2017-09-02T11:26:45.683Z,5172
2017-09-02T11:27:47.191Z,5444
2017-09-02T11:28:48.617Z,4856
2017-09-02T11:29:50.021Z,3616
2017-09-02T11:30:51.507Z,2900
2017-09-02T11:31:52.917Z,3088
2017-09-02T11:32:54.320Z,6240
2017-09-02T11:33:55.830Z,6924
2017-09-02T11:34:57.243Z,5592
2017-09-02T11:35:58.712Z,2696
2017-09-02T11:37:00.116Z,1168
2017-09-02T11:38:01.526Z,1028
2017-09-02T11:39:03.023Z,916
2017-09-02T11:40:04.433Z,792
2017-09-02T11:41:05.834Z,728
2017-09-02T11:42:07.348Z,712
2017-09-02T11:43:08.753Z,744
2017-09-02T11:44:10.242Z,780
2017-09-02T11:45:11.670Z,820
2017-09-02T11:46:13.080Z,832
2017-09-02T11:47:14.481Z,880
2017-09-02T11:48:15.994Z,1096
2017-09-02T11:49:17.399Z,1336
2017-09-02T11:50:20.002Z,1584
2017-09-02T11:51:21.421Z,1604
2017-09-02T11:52:22.884Z,1504
2017-09-02T11:53:24.287Z,1432
2017-09-02T11:54:25.763Z,1364
2017-09-02T11:55:27.169Z,1356
2017-09-02T11:56:28.644Z,1264
2017-09-02T11:57:30.067Z,1352
2017-09-02T11:58:31.458Z,1304
2017-09-02T11:59:32.965Z,1264
2017-09-02T12:00:34.370Z,1208
2017-09-02T12:01:35.776Z,1144
2017-09-02T12:02:37.287Z,1080
2017-09-02T12:03:38.698Z,1044
2017-09-02T12:04:40.170Z,1048
2017-09-02T12:05:41.576Z,1108
2017-09-02T12:06:43.051Z,1172
2017-09-02T12:07:44.455Z,1212
2017-09-02T12:08:45.932Z,1236
2017-09-02T12:09:47.336Z,1228
2017-09-02T12:10:48.842Z,1204
2017-09-02T12:11:50.258Z,1180
2017-09-02T12:12:51.662Z,1220
2017-09-02T12:13:53.132Z,1260
2017-09-02T12:14:54.533Z,1332
2017-09-02T12:15:55.935Z,1452
2017-09-02T12:16:57.352Z,1576
2017-09-02T12:17:58.751Z,1688
2017-09-02T12:19:00.230Z,1724
2017-09-02T12:20:01.635Z,1736
2017-09-02T12:21:03.111Z,1724
2017-09-02T12:22:04.512Z,1652
2017-09-02T12:23:05.993Z,1668
2017-09-02T12:24:07.398Z,1744
2017-09-02T12:25:08.878Z,1796
2017-09-02T12:26:10.275Z,1828
2017-09-02T12:27:11.751Z,1804
2017-09-02T12:28:13.158Z,1788
2017-09-02T12:29:14.562Z,1812
2017-09-02T12:30:16.070Z,1692
2017-09-02T12:31:17.473Z,1524
2017-09-02T12:32:18.876Z,1268
2017-09-02T12:33:20.404Z,1148
2017-09-02T12:34:21.809Z,1156
2017-09-02T12:35:23.217Z,1060
2017-09-02T12:36:24.705Z,1056
2017-09-02T12:37:26.118Z,996
2017-09-02T12:38:27.521Z,968
2017-09-02T12:39:29.036Z,992
2017-09-02T12:40:30.439Z,1024
2017-09-02T12:41:31.846Z,1100
2017-09-02T12:42:33.356Z,1156
2017-09-02T12:43:34.772Z,1200
2017-09-02T12:44:36.173Z,1260
2017-09-02T12:45:38.599Z,1336
2017-09-02T12:46:40.002Z,1368
2017-09-02T12:47:41.409Z,1368
2017-09-02T12:48:42.926Z,1376
2017-09-02T12:49:44.324Z,1364
2017-09-02T12:50:45.802Z,1280
2017-09-02T12:51:47.608Z,1328
2017-09-02T12:52:49.092Z,1480
2017-09-02T12:53:50.493Z,1548
2017-09-02T12:54:51.900Z,1444
2017-09-02T12:55:53.415Z,1428
2017-09-02T12:56:54.814Z,1444
2017-09-02T12:57:56.217Z,1428
2017-09-02T12:58:57.735Z,1368
2017-09-02T12:59:59.189Z,1356
2017-09-02T13:01:00.614Z,1340
2017-09-02T13:02:02.015Z,1308
2017-09-02T13:03:03.423Z,1268
2017-09-02T13:04:04.943Z,1232
2017-09-02T13:05:06.337Z,1228
2017-09-02T13:06:07.742Z,1268
2017-09-02T13:07:09.262Z,1336
2017-09-02T13:08:10.667Z,1468
2017-09-02T13:09:12.083Z,1632
2017-09-02T13:10:13.576Z,1708
2017-09-02T13:11:14.978Z,1740
2017-09-02T13:12:16.384Z,1832
2017-09-02T13:13:18.304Z,2116
2017-09-02T13:14:19.707Z,2396
2017-09-02T13:15:21.116Z,2684
2017-09-02T13:16:22.627Z,2716
2017-09-02T13:17:24.034Z,2296
2017-09-02T13:18:25.441Z,2048
2017-09-02T13:19:26.949Z,1964
2017-09-02T13:20:28.356Z,1940
2017-09-02T13:21:29.760Z,1892
2017-09-02T13:22:31.295Z,1916
2017-09-02T13:23:32.700Z,1948
2017-09-02T13:24:34.151Z,2000
2017-09-02T13:25:35.574Z,1872
2017-09-02T13:26:37.042Z,1828
2017-09-02T13:27:38.446Z,1736
2017-09-02T13:28:39.912Z,1648
2017-09-02T13:29:41.317Z,1572
2017-09-02T13:30:42.795Z,1496
2017-09-02T13:31:44.201Z,1360
2017-09-02T13:32:45.605Z,1212
2017-09-02T13:33:47.127Z,1148
2017-09-02T13:34:48.531Z,1108
2017-09-02T13:35:49.939Z,1108
2017-09-02T13:36:51.436Z,1160
2017-09-02T13:37:52.841Z,1124
2017-09-02T13:38:54.247Z,1088
2017-09-02T13:39:55.759Z,1036
2017-09-02T13:40:57.168Z,1000
2017-09-02T13:41:58.528Z,964
2017-09-02T13:43:01.002Z,932
2017-09-02T13:44:02.411Z,892
2017-09-02T13:45:03.881Z,844
2017-09-02T13:46:05.284Z,820
2017-09-02T13:47:06.759Z,804
2017-09-02T13:48:08.159Z,772
2017-09-02T13:49:09.567Z,756
2017-09-02T13:50:11.082Z,740
2017-09-02T13:51:12.480Z,728
2017-09-02T13:52:13.893Z,712
2017-09-02T13:53:15.406Z,708
2017-09-02T13:54:16.807Z,704
2017-09-02T13:55:18.207Z,700
2017-09-02T13:56:19.721Z,696
2017-09-02T13:57:21.125Z,684
2017-09-02T13:58:22.531Z,684
2017-09-02T13:59:24.041Z,680
2017-09-02T14:00:25.449Z,656
2017-09-02T14:01:26.924Z,676
2017-09-02T14:02:28.323Z,684
2017-09-02T14:03:29.804Z,680
2017-09-02T14:04:31.206Z,680
2017-09-02T14:05:32.690Z,672
2017-09-02T14:06:34.094Z,668
2017-09-02T14:07:35.589Z,624
2017-09-02T14:08:36.991Z,616
2017-09-02T14:09:38.399Z,652
2017-09-02T14:10:39.914Z,668
2017-09-02T14:11:41.313Z,664
2017-09-02T14:12:42.721Z,600
2017-09-02T14:13:44.207Z,580
2017-09-02T14:14:45.625Z,572